GCC Virtual Airport Information Service

Lisbon Portela Airport

ICAO: LPPT Country: PT
Latitude: 38.7813 Longitude: -9.13592
Latest Arrival : UAE193 (OMDB-LPPT) Latest Departure : UAE192 (LPPT-OMDB)


WX CaptureLIVE
Data provided by noaa.gov | Fetched at 06:44:59

METAR : LPPT 270600Z 21003KT 6000 2500NE BCFG FEW003 SCT010 12/12 Q1027

TAF : LPPT 270500Z 2706/2812 VRB02KT 9999 SCT008 SCT015 TEMPO 2706/2710 5000 BR BKN004 PROB30 TEMPO 2706/2709 0400 DZ FG VV001 BECMG 2710/2713 BKN020 BECMG 2719/2721 SCT008 BECMG 2801/2804 06005KT 5000 BR SCT003 PROB30 2804/2811 0100 FG VV001


Runway Data for LPPT
Data provided by openaviationdata.com

Runway ID Mag Var Hdg Length Elevation Surface ILS Freq ILS Id ILS Slope
3 -5 27° 12495 ft 340 ft Asphalt 109.1 ILI 3
17 -5 173° 7906 ft 340 ft Asphalt -- -- --
21 -5 207° 12495 ft 340 ft Asphalt 109.5 ILB 3
35 -5 353° 7906 ft 340 ft Asphalt -- -- --

Lisbon Portela Airport, PT
Use only for reference purposes



Not for navigational purposes.